Time;durP1;ratioP1;P1;durP2;ratioP2;P2;SDS_P1;SDS_P2;PMS_P1;PMS_P2;Temp;Humidity;BMP_temperature;BMP_pressure;BME280_temperature;BME280_humidity;BME280_pressure;Samples;Min_cycle;Max_cycle;Signal;HPM_P1;HPM_P2
2023/10/05 00:03:46;;;;;;;14.23;7.40;;;;;;;15.93;58.99;97763.50;5050223;28;20671;-82
2023/10/05 00:06:14;;;;;;;10.97;6.13;;;;;;;16.03;59.44;97755.03;5049165;28;20697;-86
2023/10/05 00:08:44;;;;;;;12.83;6.70;;;;;;;16.10;58.47;97751.16;5049897;28;20204;-82
2023/10/05 00:11:24;;;;;;;11.40;6.00;;;;;;;16.11;57.68;97758.09;5049967;28;20182;-86
2023/10/05 00:14:05;;;;;;;14.83;6.63;;;;;;;16.15;57.78;97754.38;5048931;28;20209;-81
2023/10/05 00:16:37;;;;;;;9.87;6.17;;;;;;;15.99;58.49;97753.50;5050341;28;20237;-85
2023/10/05 00:19:11;;;;;;;10.70;6.63;;;;;;;16.09;58.43;97754.69;5049280;28;20202;-84
2023/10/05 00:21:51;;;;;;;18.03;6.80;;;;;;;16.15;57.46;97754.38;5050083;28;20304;-79
2023/10/05 00:24:28;;;;;;;10.07;6.17;;;;;;;15.92;58.08;97752.19;5049825;28;20712;-79
2023/10/05 00:26:56;;;;;;;14.77;6.60;;;;;;;15.88;57.76;97753.28;5048748;28;20226;-83
2023/10/05 00:31:57;;;;;;;12.47;6.53;;;;;;;15.54;59.10;97752.63;5063531;28;20233;-86
2023/10/05 00:34:25;;;;;;;11.37;5.93;;;;;;;15.00;60.37;97748.53;5049246;28;20213;-70
2023/10/05 00:36:57;;;;;;;13.67;6.00;;;;;;;14.57;62.30;97750.69;5064140;28;20316;-83
2023/10/05 00:39:26;;;;;;;10.97;5.87;;;;;;;14.47;62.67;97759.91;5063588;28;20198;-69
2023/10/05 00:44:23;;;;;;;12.57;6.23;;;;;;;14.00;64.44;97766.53;5051487;28;20202;-81
2023/10/05 00:46:50;;;;;;;12.97;6.53;;;;;;;14.29;63.48;97759.97;5067976;28;20204;-75
2023/10/05 00:49:23;;;;;;;12.27;7.13;;;;;;;14.34;62.72;97742.34;5055982;28;20610;-76
2023/10/05 00:52:04;;;;;;;10.67;6.57;;;;;;;14.30;63.39;97754.66;5056201;28;20212;-70
2023/10/05 00:54:33;;;;;;;12.63;7.60;;;;;;;14.40;62.92;97762.88;5077221;28;20182;-71
2023/10/05 00:57:03;;;;;;;12.93;7.50;;;;;;;14.20;63.60;97768.22;5051699;28;20251;-80
2023/10/05 00:59:32;;;;;;;14.90;8.43;;;;;;;13.94;64.45;97769.44;5049513;28;20207;-76
2023/10/05 01:02:14;;;;;;;17.10;8.67;;;;;;;13.83;65.43;97766.50;5048757;28;20201;-82
2023/10/05 01:07:28;;;;;;;15.97;8.83;;;;;;;13.68;65.63;97743.81;5048688;28;20218;-85
2023/10/05 01:12:43;;;;;;;13.70;7.90;;;;;;;13.61;66.07;97745.00;5049120;28;20212;-85
2023/10/05 01:15:16;;;;;;;13.17;8.07;;;;;;;13.85;65.73;97759.44;5048173;28;20199;-85
2023/10/05 01:17:43;;;;;;;13.60;7.47;;;;;;;13.86;66.28;97761.16;5039189;28;20262;-82
2023/10/05 01:20:22;;;;;;;13.03;7.80;;;;;;;14.04;65.25;97760.28;5029602;28;20201;-87
2023/10/05 01:22:50;;;;;;;14.47;8.17;;;;;;;14.05;65.70;97758.50;5027425;28;20213;-85
2023/10/05 01:25:17;;;;;;;11.53;6.93;;;;;;;13.85;65.68;97743.81;5028068;28;20245;-84
2023/10/05 01:27:49;;;;;;;13.37;8.07;;;;;;;14.10;65.44;97754.75;5026836;28;20296;-83
2023/10/05 01:30:16;;;;;;;13.47;7.90;;;;;;;13.95;65.77;97728.63;5028237;28;20208;-70
2023/10/05 01:32:45;;;;;;;13.00;7.53;;;;;;;14.09;65.35;97737.47;5027121;28;20673;-72
2023/10/05 01:35:15;;;;;;;14.63;7.63;;;;;;;14.24;65.03;97741.91;5027835;28;20293;-71
2023/10/05 01:37:44;;;;;;;14.93;7.50;;;;;;;14.11;64.98;97748.66;5028987;28;20258;-79
2023/10/05 01:40:36;;;;;;;13.27;7.23;;;;;;;14.05;65.76;97745.50;5027259;28;20207;-70
2023/10/05 01:43:01;;;;;;;13.50;7.73;;;;;;;13.97;65.84;97753.69;5028021;28;20257;-69
2023/10/05 01:45:29;;;;;;;14.53;7.27;;;;;;;14.04;65.13;97744.66;5026818;28;20198;-69
2023/10/05 01:48:12;;;;;;;15.17;7.67;;;;;;;14.12;65.62;97744.25;5027793;28;20213;-69
2023/10/05 01:50:39;;;;;;;13.70;7.87;;;;;;;14.10;64.94;97743.50;5027700;28;20289;-69
2023/10/05 01:53:07;;;;;;;16.50;7.93;;;;;;;13.95;65.19;97736.44;5027003;28;20205;-70
2023/10/05 01:55:36;;;;;;;14.57;8.50;;;;;;;13.73;66.03;97744.41;5027775;28;20198;-70
2023/10/05 01:58:07;;;;;;;16.20;8.87;;;;;;;13.58;66.81;97740.75;5024904;28;20319;-70
2023/10/05 02:00:37;;;;;;;14.20;7.90;;;;;;;13.51;67.49;97734.16;5026418;28;20203;-70
2023/10/05 02:03:09;;;;;;;16.60;8.13;;;;;;;13.31;68.15;97734.25;5026824;28;20202;-69
2023/10/05 02:05:37;;;;;;;16.30;8.13;;;;;;;13.26;68.12;97740.56;5027164;28;20196;-70
2023/10/05 02:08:05;;;;;;;13.30;7.63;;;;;;;13.27;67.65;97735.28;5027282;28;20203;-69
2023/10/05 02:10:33;;;;;;;12.27;7.60;;;;;;;13.21;67.90;97739.94;5024811;28;20256;-71
2023/10/05 02:13:03;;;;;;;16.97;7.73;;;;;;;13.39;67.83;97739.09;5026190;28;20208;-69
2023/10/05 02:15:30;;;;;;;16.90;7.80;;;;;;;13.73;67.05;97744.41;5025088;28;20197;-69
2023/10/05 02:18:07;;;;;;;13.37;8.00;;;;;;;13.93;65.78;97756.50;5026106;28;20265;-73
2023/10/05 02:23:04;;;;;;;17.67;7.77;;;;;;;14.29;64.80;97760.81;5025370;28;20249;-75
2023/10/05 02:25:33;;;;;;;13.00;7.83;;;;;;;14.26;64.36;97760.09;5026134;28;20214;-82
2023/10/05 02:28:03;;;;;;;12.70;7.87;;;;;;;14.21;63.90;97742.06;5024742;28;20684;-70
2023/10/05 02:30:31;;;;;;;14.07;7.67;;;;;;;14.13;65.05;97759.84;5027605;28;20408;-69
2023/10/05 02:32:59;;;;;;;12.37;7.57;;;;;;;13.90;64.92;97757.47;5025928;28;20288;-70
2023/10/05 02:35:33;;;;;;;15.50;7.53;;;;;;;13.62;65.73;97751.91;5027297;28;20202;-82
2023/10/05 02:38:06;;;;;;;14.60;7.40;;;;;;;13.74;65.52;97757.38;5029537;28;20232;-73
2023/10/05 02:40:39;;;;;;;17.50;8.37;;;;;;;13.75;66.12;97755.59;5028854;28;20196;-69
2023/10/05 02:43:08;;;;;;;19.40;8.60;;;;;;;13.64;65.61;97744.88;5030399;28;20687;-70
2023/10/05 02:45:38;;;;;;;10.23;7.27;;;;;;;13.70;65.52;97760.19;5028492;28;20676;-70
2023/10/05 02:48:06;;;;;;;13.67;8.20;;;;;;;13.52;66.12;97754.06;5031242;28;20214;-69
2023/10/05 02:50:37;;;;;;;14.87;8.23;;;;;;;13.55;66.04;97759.13;5028668;28;20217;-81
2023/10/05 02:53:06;;;;;;;12.73;7.80;;;;;;;13.57;66.50;97748.66;5030498;28;20239;-76
2023/10/05 02:55:37;;;;;;;14.47;7.77;;;;;;;13.48;66.85;97749.91;5031024;28;20251;-73
2023/10/05 02:58:04;;;;;;;12.00;7.63;;;;;;;13.42;66.03;97758.00;5028364;28;20320;-71
2023/10/05 03:00:37;;;;;;;14.07;7.80;;;;;;;13.27;67.30;97763.06;5029682;28;20199;-69
2023/10/05 03:03:07;;;;;;;17.23;8.00;;;;;;;13.18;67.19;97755.66;5028214;28;20206;-73
2023/10/05 03:05:38;;;;;;;14.90;7.83;;;;;;;13.06;67.67;97759.66;5030781;28;20674;-75
2023/10/05 03:08:05;;;;;;;15.47;7.27;;;;;;;13.01;68.33;97761.56;5028905;28;20572;-71
2023/10/05 03:10:32;;;;;;;13.40;7.43;;;;;;;13.01;68.04;97758.97;5030136;28;20204;-69
2023/10/05 03:12:59;;;;;;;15.27;7.70;;;;;;;13.11;68.20;97755.09;5030606;28;20749;-69
2023/10/05 03:15:27;;;;;;;16.27;7.43;;;;;;;13.24;67.93;97758.84;5029429;28;20229;-69
2023/10/05 03:17:57;;;;;;;25.90;8.77;;;;;;;13.52;67.85;97763.63;5049488;28;20330;-72
2023/10/05 03:20:28;;;;;;;11.47;7.17;;;;;;;13.69;67.41;97768.91;5047929;28;20699;-74
2023/10/05 03:22:55;;;;;;;11.77;6.97;;;;;;;13.61;66.12;97766.66;5042814;28;21034;-69
2023/10/05 03:25:26;;;;;;;10.37;6.07;;;;;;;13.30;67.79;97755.09;5046559;28;20201;-68
2023/10/05 03:27:56;;;;;;;12.87;6.87;;;;;;;13.24;67.82;97756.22;5028169;28;20276;-73
2023/10/05 03:30:30;;;;;;;16.30;6.80;;;;;;;13.35;67.56;97760.97;5048567;28;20232;-68
2023/10/05 03:33:00;;;;;;;17.07;6.93;;;;;;;13.37;67.03;97751.31;5047289;28;20214;-72
2023/10/05 03:35:32;;;;;;;14.10;6.00;;;;;;;13.57;66.59;97765.13;5048925;28;20282;-69
2023/10/05 03:38:00;;;;;;;16.20;6.73;;;;;;;13.29;67.77;97754.25;5047397;28;20232;-69
2023/10/05 03:40:35;;;;;;;14.03;6.90;;;;;;;13.32;67.52;97755.88;5048586;28;20227;-76
2023/10/05 03:43:04;;;;;;;11.97;6.20;;;;;;;13.23;67.30;97756.31;5049645;28;20213;-87
2023/10/05 03:45:34;;;;;;;11.30;6.37;;;;;;;12.99;68.73;97751.25;5044307;28;20214;-78
2023/10/05 03:48:02;;;;;;;10.20;6.30;;;;;;;13.15;68.52;97759.22;5048058;28;20577;-70
2023/10/05 03:50:31;;;;;;;12.13;6.70;;;;;;;13.02;69.44;97753.69;5046819;28;20285;-81
2023/10/05 03:52:59;;;;;;;13.67;6.60;;;;;;;12.93;69.46;97755.88;5049760;28;20246;-75
2023/10/05 03:55:27;;;;;;;13.57;7.13;;;;;;;13.02;69.15;97760.69;5048570;28;20645;-68
2023/10/05 03:57:57;;;;;;;16.67;7.47;;;;;;;13.04;68.78;97751.91;5047735;28;20235;-68
2023/10/05 04:00:49;;;;;;;11.07;6.87;;;;;;;13.24;68.30;97760.59;5048041;28;20211;-68
2023/10/05 04:03:13;;;;;;;17.63;7.43;;;;;;;13.51;67.53;97754.13;5031513;28;20225;-69
2023/10/05 04:05:41;;;;;;;11.17;6.27;;;;;;;13.64;67.65;97763.09;5049084;28;20293;-72
2023/10/05 04:08:11;;;;;;;15.00;6.77;;;;;;;13.44;67.21;97750.13;5029928;28;20283;-69
2023/10/05 04:10:46;;;;;;;11.50;6.37;;;;;;;13.42;68.02;97759.75;5046854;28;20597;-83
2023/10/05 04:13:55;;;;;;;13.43;6.87;;;;;;;13.56;67.97;97767.78;5031541;28;20695;-83
2023/10/05 04:17:20;;;;;;;14.80;7.60;;;;;;;13.75;66.50;97771.22;5048224;28;20675;-71
2023/10/05 04:20:43;;;;;;;14.53;7.70;;;;;;;13.95;66.14;97771.13;5047607;28;20188;-69
2023/10/05 04:24:04;;;;;;;16.03;7.57;;;;;;;14.03;65.69;97776.84;5049241;28;20692;-74
2023/10/05 04:26:45;;;;;;;11.60;7.33;;;;;;;14.02;65.97;97776.88;5046572;28;20194;-71
2023/10/05 04:29:51;;;;;;;13.93;7.67;;;;;;;13.93;65.93;97753.91;5043378;28;20233;-79
2023/10/05 04:33:14;;;;;;;15.17;7.70;;;;;;;14.13;65.87;97774.63;5047563;28;20273;-76
2023/10/05 04:36:35;;;;;;;13.67;7.73;;;;;;;14.18;65.49;97778.69;5050349;28;20203;-70
2023/10/05 04:39:55;;;;;;;15.37;7.80;;;;;;;14.14;65.22;97747.63;5048251;28;20197;-71
2023/10/05 04:43:17;;;;;;;13.80;7.80;;;;;;;14.23;66.02;97781.06;5047504;28;20217;-81
2023/10/05 04:46:37;;;;;;;12.30;7.20;;;;;;;14.13;66.33;97778.06;5046986;28;20190;-71
2023/10/05 04:49:19;;;;;;;17.67;7.53;;;;;;;14.21;66.03;97775.94;5047895;28;20228;-70
2023/10/05 04:51:47;;;;;;;13.33;7.10;;;;;;;14.20;65.86;97779.44;5047807;28;20202;-76
2023/10/05 04:54:18;;;;;;;13.30;7.17;;;;;;;14.23;66.03;97801.91;5046220;28;20191;-71
2023/10/05 04:57:07;;;;;;;13.10;7.23;;;;;;;14.47;65.32;97796.38;5048262;28;20221;-70
2023/10/05 04:59:47;;;;;;;20.17;7.70;;;;;;;14.55;64.92;97790.78;5045908;28;20315;-70
2023/10/05 05:02:21;;;;;;;12.37;6.87;;;;;;;14.62;64.90;97790.41;5048202;28;20235;-70
2023/10/05 05:07:21;;;;;;;17.77;8.23;;;;;;;14.78;64.18;97797.44;5047303;28;20207;-71
2023/10/05 05:09:50;;;;;;;15.20;7.70;;;;;;;14.81;64.27;97800.78;5047987;28;20201;-71
2023/10/05 05:12:18;;;;;;;14.40;7.40;;;;;;;14.92;63.85;97790.63;5046665;28;20196;-71
2023/10/05 05:14:47;;;;;;;15.63;7.40;;;;;;;14.83;63.70;97779.81;5048126;28;20602;-70
2023/10/05 05:17:26;;;;;;;19.50;8.07;;;;;;;14.90;63.91;97794.25;5047307;28;20240;-69
2023/10/05 05:19:56;;;;;;;15.27;7.63;;;;;;;15.02;63.26;97791.00;5048058;28;20724;-68
2023/10/05 05:22:24;;;;;;;11.93;7.77;;;;;;;15.25;63.07;97790.69;5046719;28;20201;-68
2023/10/05 05:24:51;;;;;;;20.83;8.23;;;;;;;15.22;62.74;97783.84;5047215;28;20253;-69
2023/10/05 05:29:46;;;;;;;12.87;7.80;;;;;;;15.15;63.48;97799.88;5046563;28;20198;-70
2023/10/05 05:32:14;;;;;;;12.70;7.10;;;;;;;14.96;63.37;97805.19;5048516;28;20198;-71
2023/10/05 05:34:42;;;;;;;12.93;6.80;;;;;;;15.08;63.77;97796.78;5047198;28;20278;-76
2023/10/05 05:37:28;;;;;;;14.13;7.17;;;;;;;15.15;63.21;97805.09;5048244;28;20225;-71
2023/10/05 05:39:58;;;;;;;12.30;6.43;;;;;;;15.14;63.50;97798.22;5051691;28;20202;-70
2023/10/05 05:42:30;;;;;;;16.43;6.30;;;;;;;15.37;62.85;97805.69;5053948;28;20193;-77
2023/10/05 05:44:57;;;;;;;11.20;6.53;;;;;;;15.40;62.51;97753.31;5055836;28;20198;-71
2023/10/05 05:47:31;;;;;;;16.30;6.77;;;;;;;15.80;61.83;97805.13;5050426;28;20194;-70
2023/10/05 05:50:00;;;;;;;14.80;6.53;;;;;;;15.73;61.80;97793.31;5065901;28;20218;-76
2023/10/05 05:52:31;;;;;;;14.80;6.80;;;;;;;15.98;61.60;97811.09;5046919;28;20303;-71
2023/10/05 05:55:06;;;;;;;10.20;6.50;;;;;;;16.02;61.21;97810.84;5047361;28;20613;-76
2023/10/05 05:57:33;;;;;;;16.03;7.00;;;;;;;15.94;62.39;97806.97;5047986;28;20704;-71
2023/10/05 06:00:11;;;;;;;14.67;6.70;;;;;;;16.15;60.86;97821.47;5046659;28;20736;-69
2023/10/05 06:02:41;;;;;;;11.67;6.70;;;;;;;16.21;59.96;97803.69;5053221;28;20204;-74
2023/10/05 06:05:11;;;;;;;17.67;6.70;;;;;;;16.47;59.91;97830.94;5052814;28;20192;-70
2023/10/05 06:07:41;;;;;;;16.97;6.70;;;;;;;16.54;60.54;97841.94;5051961;28;20289;-74
2023/10/05 06:10:13;;;;;;;11.07;7.23;;;;;;;16.64;60.06;97832.63;5049853;28;20289;-71
2023/10/05 06:12:51;;;;;;;35.37;19.87;;;;;;;16.90;59.47;97826.72;5029292;28;20632;-79
2023/10/05 06:15:20;;;;;;;23.47;13.27;;;;;;;16.98;58.69;97824.53;5045928;28;20199;-81
2023/10/05 06:17:48;;;;;;;28.33;15.30;;;;;;;17.19;57.86;97815.41;5045881;28;20414;-85
2023/10/05 06:20:15;;;;;;;16.13;9.00;;;;;;;17.49;56.84;97823.19;5047224;28;20206;-79
2023/10/05 06:22:45;;;;;;;21.40;11.37;;;;;;;17.85;56.64;97840.13;5029643;28;20207;-83
2023/10/05 06:25:16;;;;;;;18.50;8.37;;;;;;;18.12;56.07;97847.22;5045822;28;20219;-72
2023/10/05 06:27:51;;;;;;;19.07;11.13;;;;;;;18.27;55.96;97852.34;5045666;28;20216;-83
2023/10/05 06:30:20;;;;;;;17.97;10.77;;;;;;;18.35;56.13;97850.06;5044294;28;20190;-74
2023/10/05 06:32:48;;;;;;;18.20;8.73;;;;;;;18.40;55.62;97862.91;5046440;28;20232;-70
2023/10/05 06:35:17;;;;;;;18.53;10.40;;;;;;;18.57;55.40;97860.03;5044109;28;20704;-72
2023/10/05 06:37:45;;;;;;;17.90;9.03;;;;;;;18.72;54.78;97864.31;5046503;28;20228;-74
2023/10/05 06:40:12;;;;;;;18.40;10.67;;;;;;;18.84;55.28;97866.13;5045416;28;20199;-73
2023/10/05 06:42:43;;;;;;;16.70;9.90;;;;;;;18.91;55.28;97869.19;5028300;28;20311;-70
2023/10/05 06:45:13;;;;;;;15.90;7.83;;;;;;;18.92;54.73;97850.72;5047536;28;20565;-74
2023/10/05 06:47:41;;;;;;;20.00;7.80;;;;;;;19.00;54.60;97864.16;5055702;28;20213;-72
2023/10/05 06:50:10;;;;;;;27.43;11.17;;;;;;;18.89;54.88;97845.69;5059542;28;20205;-85
2023/10/05 06:52:40;;;;;;;17.73;10.37;;;;;;;19.42;54.67;97860.50;5049075;28;20212;-82
2023/10/05 06:55:07;;;;;;;20.27;10.23;;;;;;;19.64;53.67;97870.38;5047263;28;20262;-77
2023/10/05 06:57:39;;;;;;;14.10;7.97;;;;;;;19.92;52.87;97859.63;5046725;28;20221;-87
2023/10/05 07:00:12;;;;;;;18.13;9.17;;;;;;;20.13;52.12;97861.56;5046220;28;20224;-82
2023/10/05 07:02:40;;;;;;;20.07;8.07;;;;;;;20.25;51.71;97866.03;5047143;28;20213;-85
2023/10/05 07:05:09;;;;;;;13.73;7.60;;;;;;;20.47;51.46;97869.72;5044942;28;20629;-82
2023/10/05 07:07:36;;;;;;;14.53;8.00;;;;;;;20.66;50.53;97875.34;5046936;28;20201;-78
2023/10/05 07:10:05;;;;;;;16.17;7.57;;;;;;;20.69;50.23;97865.41;5048018;28;20194;-79
2023/10/05 07:12:41;;;;;;;17.73;9.20;;;;;;;20.67;50.67;97856.78;5046136;28;20231;-76
2023/10/05 07:15:09;;;;;;;20.20;8.80;;;;;;;20.97;50.22;97880.03;5046658;28;20216;-73
2023/10/05 07:17:37;;;;;;;12.43;7.93;;;;;;;21.01;49.08;97868.31;5044623;28;20231;-78
2023/10/05 07:20:05;;;;;;;26.20;8.60;;;;;;;21.07;49.39;97873.16;5046258;28;20182;-72
2023/10/05 07:22:32;;;;;;;16.40;8.70;;;;;;;20.88;48.71;97852.59;5045093;28;20726;-71
2023/10/05 07:24:59;;;;;;;13.50;9.00;;;;;;;21.09;48.86;97871.25;5049878;28;20217;-69
2023/10/05 07:27:29;;;;;;;17.90;8.93;;;;;;;21.12;48.94;97870.19;5049887;28;20265;-69
2023/10/05 07:29:56;;;;;;;15.80;7.87;;;;;;;21.11;48.61;97850.06;5051501;28;20196;-71
2023/10/05 07:32:30;;;;;;;21.60;7.83;;;;;;;21.36;48.52;97860.44;5053410;28;20282;-71
2023/10/05 07:34:57;;;;;;;17.00;8.40;;;;;;;21.57;47.98;97872.84;5048504;28;20200;-73
2023/10/05 07:37:26;;;;;;;18.93;8.77;;;;;;;21.69;47.02;97868.41;5050966;28;20245;-74
2023/10/05 07:39:54;;;;;;;14.77;8.90;;;;;;;21.67;47.43;97862.41;5048652;28;20187;-75
2023/10/05 07:42:22;;;;;;;15.67;8.17;;;;;;;21.67;47.19;97865.91;5050330;28;20267;-73
2023/10/05 07:44:49;;;;;;;16.47;7.97;;;;;;;21.51;47.18;97864.56;5050206;28;20224;-73
2023/10/05 07:47:16;;;;;;;17.63;7.57;;;;;;;21.67;46.59;97865.03;5048379;28;20200;-74
2023/10/05 07:49:43;;;;;;;18.53;8.30;;;;;;;21.74;46.54;97858.34;5049299;28;20214;-72
2023/10/05 07:52:11;;;;;;;17.00;7.53;;;;;;;21.88;46.11;97860.78;5048762;28;20633;-70
2023/10/05 07:54:39;;;;;;;18.97;7.77;;;;;;;21.81;45.67;97854.25;5050818;28;20223;-71
2023/10/05 07:57:09;;;;;;;17.47;8.17;;;;;;;22.03;45.25;97870.13;5048688;28;20656;-69
2023/10/05 07:59:40;;;;;;;18.30;10.87;;;;;;;22.06;45.19;97864.63;5050510;28;20232;-69
2023/10/05 08:02:11;;;;;;;17.20;7.57;;;;;;;22.25;44.86;97856.94;5048712;28;20229;-71
2023/10/05 08:04:38;;;;;;;16.27;7.20;;;;;;;22.34;45.08;97866.72;5047970;28;20204;-71
2023/10/05 08:07:05;;;;;;;18.60;8.33;;;;;;;22.43;45.04;97865.16;5049162;28;20238;-71
2023/10/05 08:09:34;;;;;;;15.57;7.57;;;;;;;22.37;44.49;97858.59;5047639;28;20257;-70
2023/10/05 08:12:02;;;;;;;16.67;7.07;;;;;;;22.61;44.05;97867.19;5047260;28;20192;-70
2023/10/05 08:14:30;;;;;;;21.13;9.63;;;;;;;22.76;44.52;97869.53;5049760;28;20199;-70
2023/10/05 08:16:59;;;;;;;14.57;8.10;;;;;;;22.88;43.47;97860.63;5053683;28;20224;-71
2023/10/05 08:19:28;;;;;;;21.83;12.20;;;;;;;23.02;43.07;97855.06;5047938;28;20290;-71
2023/10/05 08:21:55;;;;;;;19.43;8.93;;;;;;;23.18;42.97;97866.03;5048592;28;20185;-72
2023/10/05 08:24:27;;;;;;;13.93;7.10;;;;;;;23.17;42.30;97864.34;5049209;28;20205;-72
2023/10/05 08:26:57;;;;;;;14.00;7.77;;;;;;;23.29;41.65;97858.03;5047070;28;20225;-71
2023/10/05 08:29:24;;;;;;;18.67;8.93;;;;;;;23.42;41.73;97856.91;5048472;28;20210;-72
2023/10/05 08:31:52;;;;;;;16.33;8.43;;;;;;;23.25;41.50;97857.44;5046781;28;20191;-70
2023/10/05 08:34:23;;;;;;;17.93;9.33;;;;;;;23.44;41.47;97848.84;5045879;28;20597;-72
2023/10/05 08:36:54;;;;;;;16.77;9.27;;;;;;;23.53;41.69;97850.72;5046276;28;20605;-70
2023/10/05 08:39:26;;;;;;;24.40;11.43;;;;;;;23.59;41.92;97846.69;5046856;28;20237;-75
2023/10/05 08:42:06;;;;;;;21.90;10.90;;;;;;;23.60;42.06;97851.84;5048031;28;20571;-72
2023/10/05 08:44:38;;;;;;;19.90;10.00;;;;;;;23.66;41.81;97843.41;5046537;28;20220;-72
2023/10/05 08:47:10;;;;;;;18.90;9.23;;;;;;;23.80;41.72;97850.16;5048147;28;20245;-76
2023/10/05 08:49:39;;;;;;;20.37;9.00;;;;;;;23.80;41.23;97843.03;5047094;28;20213;-73
2023/10/05 08:52:14;;;;;;;17.60;7.83;;;;;;;23.84;41.32;97843.63;5047315;28;20626;-75
2023/10/05 08:54:45;;;;;;;16.27;7.80;;;;;;;23.81;41.22;97841.25;5047728;28;20198;-71
2023/10/05 08:57:14;;;;;;;18.70;7.63;;;;;;;23.71;41.76;97838.56;5046586;28;20685;-71
2023/10/05 08:59:45;;;;;;;13.77;7.03;;;;;;;23.55;42.11;97822.34;5049956;28;20769;-72
2023/10/05 09:02:18;;;;;;;13.40;7.10;;;;;;;23.53;42.16;97850.72;5049148;28;20207;-72
2023/10/05 09:05:07;;;;;;;11.03;6.20;;;;;;;23.64;42.29;97842.69;5049348;28;20286;-73
2023/10/05 09:07:35;;;;;;;16.53;7.17;;;;;;;23.59;41.98;97818.47;5046646;28;20195;-72
2023/10/05 09:10:07;;;;;;;14.10;6.90;;;;;;;23.82;42.09;97851.69;5046518;28;20587;-74
2023/10/05 09:12:37;;;;;;;14.40;6.80;;;;;;;23.75;41.43;97839.97;5048193;28;20254;-73
2023/10/05 09:15:27;;;;;;;13.53;5.93;;;;;;;23.90;41.62;97835.16;5046413;28;20211;-71
2023/10/05 09:17:58;;;;;;;14.70;6.03;;;;;;;23.85;41.12;97838.22;5045982;28;20823;-70
2023/10/05 09:20:33;;;;;;;10.50;5.80;;;;;;;23.86;41.19;97836.41;5047386;28;20195;-70
2023/10/05 09:23:04;;;;;;;21.93;8.93;;;;;;;23.92;41.19;97814.69;5044245;28;20207;-71
2023/10/05 09:25:36;;;;;;;15.27;6.50;;;;;;;24.25;40.44;97832.97;5047690;28;20353;-71
2023/10/05 09:28:09;;;;;;;12.77;5.43;;;;;;;23.93;40.98;97833.09;5046354;28;20682;-70
2023/10/05 09:30:59;;;;;;;12.30;5.73;;;;;;;23.97;41.89;97829.19;5048059;28;20632;-71
2023/10/05 09:33:34;;;;;;;13.77;6.03;;;;;;;24.12;41.60;97838.50;5047047;28;20691;-71
2023/10/05 09:36:22;;;;;;;15.33;5.83;;;;;;;24.25;41.56;97833.78;5045431;28;20683;-71
2023/10/05 09:38:51;;;;;;;13.00;5.30;;;;;;;24.43;40.77;97830.47;5046506;28;20286;-73
2023/10/05 09:41:20;;;;;;;13.97;6.53;;;;;;;24.54;40.32;97827.72;5045636;28;20205;-72
2023/10/05 09:43:58;;;;;;;14.80;6.90;;;;;;;24.68;39.88;97825.50;5049994;28;20226;-74
2023/10/05 09:46:29;;;;;;;15.33;6.23;;;;;;;24.70;40.52;97828.00;5050353;28;20217;-74
2023/10/05 09:49:01;;;;;;;13.27;6.80;;;;;;;24.92;40.45;97819.81;5030803;28;20231;-73
2023/10/05 09:51:34;;;;;;;13.27;6.57;;;;;;;25.06;38.95;97811.44;5029645;28;20212;-78
2023/10/05 09:54:08;;;;;;;10.47;5.73;;;;;;;25.01;39.84;97813.69;5026975;28;20260;-77
2023/10/05 09:56:41;;;;;;;14.40;6.00;;;;;;;25.03;39.30;97809.94;5025923;28;20723;-75
2023/10/05 09:59:18;;;;;;;13.50;5.93;;;;;;;24.75;39.98;97799.34;5027774;28;20236;-71
2023/10/05 10:01:48;;;;;;;10.93;5.97;;;;;;;24.71;39.91;97782.00;5030287;28;20204;-72
2023/10/05 10:04:35;;;;;;;11.23;5.63;;;;;;;24.91;39.55;97797.81;5032883;28;20204;-70
2023/10/05 10:07:15;;;;;;;11.53;6.13;;;;;;;25.01;39.13;97782.72;5029826;28;20206;-71
2023/10/05 10:09:46;;;;;;;15.17;6.07;;;;;;;24.98;39.23;97788.28;5028394;28;20214;-71
2023/10/05 10:12:33;;;;;;;16.93;5.60;;;;;;;24.99;39.79;97783.84;5011178;28;20200;-75
2023/10/05 10:15:01;;;;;;;14.73;5.50;;;;;;;24.33;41.16;97766.06;5026746;28;20228;-78
2023/10/05 10:17:32;;;;;;;11.50;6.03;;;;;;;24.19;41.08;97770.78;5027594;28;20252;-75
2023/10/05 10:20:28;;;;;;;8.00;5.23;;;;;;;24.23;41.29;97771.38;5025601;28;20217;-71
2023/10/05 10:23:00;;;;;;;11.10;5.30;;;;;;;24.35;41.89;97769.41;5026864;28;20587;-72
2023/10/05 10:25:38;;;;;;;9.80;5.20;;;;;;;24.21;41.57;97763.53;5027233;28;20238;-72
2023/10/05 10:31:42;;;;;;;11.30;5.80;;;;;;;25.14;39.55;97763.03;5049174;28;20196;-74
2023/10/05 10:34:28;;;;;;;10.80;5.97;;;;;;;25.09;40.21;97760.78;5049144;28;20213;-72
2023/10/05 10:36:56;;;;;;;13.57;5.50;;;;;;;25.40;38.95;97722.47;5044565;28;20292;-72
2023/10/05 10:39:27;;;;;;;10.17;5.07;;;;;;;25.75;38.50;97753.63;5046270;28;20336;-71
2023/10/05 10:42:09;;;;;;;12.07;6.20;;;;;;;25.94;38.36;97748.25;5045493;28;20200;-71
2023/10/05 10:44:57;;;;;;;13.87;5.57;;;;;;;25.90;37.81;97746.88;5045676;28;20267;-74
2023/10/05 10:47:26;;;;;;;13.80;5.80;;;;;;;25.76;39.29;97744.72;5046429;28;20201;-76
2023/10/05 10:50:15;;;;;;;14.70;5.83;;;;;;;25.82;38.48;97742.28;5045164;28;20627;-71
2023/10/05 10:52:45;;;;;;;12.20;5.83;;;;;;;25.73;38.93;97737.03;5045649;28;20197;-71
2023/10/05 10:55:15;;;;;;;10.33;6.00;;;;;;;25.68;38.71;97742.78;5045720;28;20678;-72
2023/10/05 10:57:53;;;;;;;11.17;5.97;;;;;;;25.76;38.78;97734.09;5046493;28;20974;-72
2023/10/05 11:03:12;;;;;;;13.13;6.43;;;;;;;25.94;38.43;97729.66;5048718;28;20205;-71
2023/10/05 11:05:41;;;;;;;11.17;6.03;;;;;;;26.13;38.12;97721.59;5049777;28;20293;-72
2023/10/05 11:08:11;;;;;;;15.37;5.67;;;;;;;25.39;38.47;97715.47;5049283;28;20575;-70
2023/10/05 11:10:42;;;;;;;12.53;5.93;;;;;;;25.30;39.73;97708.41;5047476;28;20198;-76
2023/10/05 11:13:19;;;;;;;9.87;5.20;;;;;;;25.03;39.78;97697.75;5050194;28;20201;-71
2023/10/05 11:15:59;;;;;;;11.37;5.03;;;;;;;25.41;39.36;97710.09;5047941;28;20251;-71
2023/10/05 11:18:30;;;;;;;9.73;5.50;;;;;;;25.66;38.84;97696.97;5029006;28;20241;-71
2023/10/05 11:21:17;;;;;;;12.90;6.80;;;;;;;25.99;38.55;97695.53;5029727;28;20208;-71
2023/10/05 11:23:55;;;;;;;11.53;6.13;;;;;;;26.25;37.89;97696.50;5030039;28;20256;-71
2023/10/05 11:26:56;;;;;;;13.00;5.57;;;;;;;26.32;38.13;97699.38;5030057;28;20202;-72
2023/10/05 11:32:41;;;;;;;14.80;6.37;;;;;;;25.98;38.55;97685.91;5039457;28;20225;-72
2023/10/05 11:35:29;;;;;;;17.73;6.67;;;;;;;26.19;38.89;97698.94;5029182;28;20195;-74
2023/10/05 11:38:04;;;;;;;15.27;7.07;;;;;;;25.87;39.11;97701.19;5028532;28;20203;-74
2023/10/05 11:40:35;;;;;;;9.50;5.77;;;;;;;25.72;39.25;97692.88;5027479;28;20229;-73
2023/10/05 11:43:12;;;;;;;15.57;6.47;;;;;;;25.83;39.32;97690.88;5034524;28;20210;-76
2023/10/05 11:45:56;;;;;;;16.33;5.87;;;;;;;25.76;39.30;97699.59;5028187;28;20194;-72
2023/10/05 11:49:06;;;;;;;13.33;5.87;;;;;;;25.72;38.84;97691.06;5036432;28;20683;-75
2023/10/05 11:52:27;;;;;;;10.70;5.87;;;;;;;25.75;38.89;97672.22;5027826;28;20205;-71
2023/10/05 11:55:49;;;;;;;12.30;6.67;;;;;;;26.07;38.53;97682.34;5047304;28;20202;-72
2023/10/05 11:59:13;;;;;;;10.00;6.37;;;;;;;25.99;38.90;97676.94;5047808;28;20194;-71
2023/10/05 12:02:34;;;;;;;12.73;5.57;;;;;;;25.83;39.09;97677.59;5049412;28;20200;-71
2023/10/05 12:06:00;;;;;;;12.97;6.10;;;;;;;25.86;38.92;97675.63;5049725;28;20193;-71
2023/10/05 12:09:27;;;;;;;15.00;5.93;;;;;;;25.96;38.59;97679.06;5048157;28;20215;-70
2023/10/05 12:12:50;;;;;;;13.20;5.87;;;;;;;26.01;38.58;97674.16;5047898;28;20277;-71
2023/10/05 12:15:32;;;;;;;10.17;5.73;;;;;;;26.02;38.54;97676.66;5045682;28;20186;-72
2023/10/05 12:17:59;;;;;;;14.90;6.57;;;;;;;26.01;38.72;97676.81;5049667;28;20283;-70
2023/10/05 12:20:27;;;;;;;11.30;5.70;;;;;;;26.01;38.75;97679.47;5047323;28;20232;-70
2023/10/05 12:22:59;;;;;;;20.33;6.87;;;;;;;26.18;38.33;97678.66;5048790;28;20260;-75
2023/10/05 12:25:27;;;;;;;14.43;6.13;;;;;;;26.22;38.32;97672.06;5047777;28;20201;-78
2023/10/05 12:27:56;;;;;;;8.87;5.07;;;;;;;25.86;38.80;97675.63;5049484;28;20790;-71
2023/10/05 12:30:24;;;;;;;15.17;6.27;;;;;;;25.80;38.68;97656.66;5048707;28;20575;-70